createdAt,value
2019-05-22T00:02:11.881Z,92.60
2019-05-22T00:04:45.376Z,92.60
2019-05-22T00:07:15.941Z,92.70
2019-05-22T00:09:47.797Z,92.60
2019-05-22T00:12:19.335Z,92.50
2019-05-22T00:14:50.865Z,92.50
2019-05-22T00:17:25.839Z,92.40
2019-05-22T00:19:56.472Z,92.40
2019-05-22T00:22:28.374Z,92.40
2019-05-22T00:24:59.007Z,92.20
2019-05-22T00:27:30.982Z,92.20
2019-05-22T00:30:02.119Z,92.30
2019-05-22T00:32:33.996Z,92.40
2019-05-22T00:35:05.641Z,92.30
2019-05-22T00:37:36.098Z,92.30
2019-05-22T00:40:08.270Z,92.30
2019-05-22T00:42:40.707Z,92.20
2019-05-22T00:45:13.665Z,92.20
2019-05-22T00:47:44.407Z,92.20
2019-05-22T00:50:17.003Z,92.10
2019-05-22T00:52:51.786Z,92.10
2019-05-22T00:55:24.240Z,92.20
2019-05-22T00:57:56.563Z,92.00
2019-05-22T01:00:28.493Z,91.90
2019-05-22T01:03:00.403Z,91.90
2019-05-22T01:05:31.808Z,91.90
2019-05-22T01:08:04.123Z,91.90
2019-05-22T01:10:35.587Z,91.80
2019-05-22T01:13:07.432Z,91.70
2019-05-22T01:15:38.405Z,91.70
2019-05-22T01:18:13.500Z,91.60
2019-05-22T01:21:04.725Z,91.70
2019-05-22T01:23:36.598Z,91.70
2019-05-22T01:26:09.381Z,91.80
2019-05-22T01:28:38.958Z,91.90
2019-05-22T01:31:10.973Z,91.70
2019-05-22T01:33:42.896Z,91.60
2019-05-22T01:36:17.207Z,91.70
2019-05-22T01:38:48.704Z,91.80
2019-05-22T01:41:34.079Z,91.70
2019-05-22T01:44:06.878Z,91.70
2019-05-22T01:46:39.861Z,91.90
2019-05-22T01:49:12.713Z,92.00
2019-05-22T01:51:43.043Z,92.30
2019-05-22T01:54:13.462Z,92.10
2019-05-22T01:56:43.590Z,92.00
2019-05-22T01:59:15.300Z,92.00
2019-05-22T02:01:47.155Z,92.00
2019-05-22T02:04:19.406Z,91.90
2019-05-22T02:06:51.289Z,91.80
2019-05-22T02:09:34.093Z,91.50
2019-05-22T02:12:09.059Z,91.60
2019-05-22T02:14:43.987Z,91.50
2019-05-22T02:17:15.861Z,91.50
2019-05-22T02:19:46.328Z,91.60
2019-05-22T02:22:17.271Z,91.40
2019-05-22T02:24:50.137Z,91.40
2019-05-22T02:27:19.642Z,91.40
2019-05-22T02:29:52.200Z,91.30
2019-05-22T02:32:23.258Z,91.30
2019-05-22T02:34:54.388Z,91.40
2019-05-22T02:37:24.651Z,91.40
2019-05-22T02:39:56.000Z,91.50
2019-05-22T02:42:28.914Z,91.50
2019-05-22T02:44:57.983Z,91.50
2019-05-22T02:47:29.406Z,91.70
2019-05-22T02:49:59.953Z,91.60
2019-05-22T02:52:30.244Z,91.70
2019-05-22T02:55:00.512Z,91.50
2019-05-22T02:57:31.899Z,91.70
2019-05-22T03:00:03.173Z,91.80
2019-05-22T03:02:39.023Z,91.80
2019-05-22T03:05:11.264Z,91.80
2019-05-22T03:07:43.504Z,91.70
2019-05-22T03:10:14.521Z,91.60
2019-05-22T03:12:45.778Z,91.70
2019-05-22T03:15:18.260Z,91.70
2019-05-22T03:17:53.544Z,91.70
2019-05-22T03:20:24.367Z,91.70
2019-05-22T03:23:28.951Z,91.80
2019-05-22T03:25:59.420Z,91.80
2019-05-22T03:28:29.619Z,91.90
2019-05-22T03:31:00.483Z,91.80
2019-05-22T03:33:30.766Z,91.80
2019-05-22T03:36:09.602Z,91.70
2019-05-22T03:38:42.955Z,91.80
2019-05-22T03:41:13.805Z,91.80
2019-05-22T03:43:48.650Z,91.60
2019-05-22T03:46:25.181Z,91.70
2019-05-22T03:48:56.310Z,91.90
2019-05-22T03:51:26.685Z,91.80
2019-05-22T03:54:14.614Z,91.80
2019-05-22T03:56:47.999Z,91.70
2019-05-22T03:59:18.400Z,91.80
2019-05-22T04:01:48.780Z,91.60
2019-05-22T04:04:34.592Z,91.60
2019-05-22T04:07:06.535Z,91.50
2019-05-22T04:09:38.657Z,91.40
2019-05-22T04:12:10.873Z,91.40
2019-05-22T04:14:41.141Z,91.40
2019-05-22T04:17:13.257Z,91.40
2019-05-22T04:19:50.151Z,91.40
2019-05-22T04:22:18.420Z,91.40
2019-05-22T04:24:48.540Z,91.10
2019-05-22T04:27:20.485Z,91.20
2019-05-22T04:29:52.765Z,91.20
2019-05-22T04:32:27.690Z,91.30
2019-05-22T04:34:57.894Z,91.20
2019-05-22T04:37:29.629Z,91.30
2019-05-22T04:40:22.340Z,91.30
2019-05-22T04:42:53.116Z,91.20
2019-05-22T04:45:24.420Z,91.20
2019-05-22T04:48:02.763Z,91.20
2019-05-22T04:50:34.270Z,91.20
2019-05-22T04:53:05.223Z,91.10
2019-05-22T04:55:36.155Z,91.10
2019-05-22T04:58:08.450Z,90.90
2019-05-22T05:00:39.094Z,91.10
2019-05-22T05:03:11.064Z,90.90
2019-05-22T05:05:54.393Z,91.00
2019-05-22T05:08:24.970Z,90.90
2019-05-22T05:10:55.869Z,90.90
2019-05-22T05:13:27.569Z,90.80
2019-05-22T05:15:57.821Z,90.60
2019-05-22T05:18:28.026Z,90.20
2019-05-22T05:20:58.352Z,90.50
2019-05-22T05:23:31.447Z,90.50
2019-05-22T05:26:01.881Z,90.70
2019-05-22T05:28:33.518Z,90.70
2019-05-22T05:31:03.873Z,90.50
2019-05-22T05:33:37.645Z,90.30
2019-05-22T05:36:07.883Z,90.10
2019-05-22T05:38:39.658Z,90.60
2019-05-22T05:41:10.337Z,90.30
2019-05-22T05:43:40.429Z,90.20
2019-05-22T05:46:10.589Z,89.50
2019-05-22T05:48:40.656Z,89.10
2019-05-22T05:51:14.530Z,89.40
2019-05-22T05:53:59.967Z,90.00
2019-05-22T05:56:31.777Z,90.10
2019-05-22T05:59:03.494Z,89.80
2019-05-22T06:01:35.690Z,89.00
2019-05-22T06:04:06.600Z,89.00
2019-05-22T06:06:43.554Z,88.50
2019-05-22T06:09:16.853Z,88.70
2019-05-22T06:11:49.092Z,88.70
2019-05-22T06:14:22.530Z,89.20
2019-05-22T06:17:07.402Z,88.80
2019-05-22T06:19:43.741Z,87.90
2019-05-22T06:22:15.404Z,87.90
2019-05-22T06:24:52.297Z,85.90
2019-05-22T06:27:25.765Z,86.60
2019-05-22T06:30:05.150Z,87.20
2019-05-22T06:33:10.118Z,87.30
2019-05-22T06:35:40.658Z,87.00
2019-05-22T06:38:20.106Z,86.00
2019-05-22T06:40:51.465Z,85.30
2019-05-22T06:43:26.896Z,85.50
2019-05-22T06:45:57.442Z,85.60
2019-05-22T06:48:27.749Z,85.90
2019-05-22T06:50:58.227Z,83.70
2019-05-22T06:53:28.278Z,82.00
2019-05-22T06:55:58.522Z,82.10
2019-05-22T06:58:28.967Z,82.20
2019-05-22T07:00:59.903Z,83.90
2019-05-22T07:03:29.920Z,82.00
2019-05-22T07:06:01.292Z,82.20
2019-05-22T07:08:32.531Z,83.60
2019-05-22T07:11:03.011Z,83.20
2019-05-22T07:13:33.344Z,80.10
2019-05-22T07:16:03.890Z,81.00
2019-05-22T07:18:53.711Z,79.20
2019-05-22T07:21:33.661Z,81.10
2019-05-22T07:23:56.034Z,80.60
2019-05-22T07:26:26.751Z,81.10
2019-05-22T07:29:02.714Z,79.70
2019-05-22T07:31:30.879Z,80.10
2019-05-22T07:34:01.065Z,79.40
2019-05-22T07:36:33.311Z,78.70
2019-05-22T07:39:04.942Z,79.40
2019-05-22T07:41:35.900Z,79.10
2019-05-22T07:44:06.502Z,78.30
2019-05-22T07:46:37.141Z,78.20
2019-05-22T07:49:07.930Z,77.80
2019-05-22T07:51:51.818Z,77.30
2019-05-22T07:54:10.378Z,77.20
2019-05-22T07:56:41.853Z,77.50
2019-05-22T07:59:11.980Z,78.10
2019-05-22T08:01:42.065Z,76.90
2019-05-22T08:04:13.894Z,77.30
2019-05-22T08:06:45.517Z,78.40
2019-05-22T08:09:18.121Z,79.50
2019-05-22T08:11:48.780Z,77.80
2019-05-22T08:14:21.582Z,77.60
2019-05-22T08:16:51.438Z,76.90
2019-05-22T08:19:22.026Z,78.20
2019-05-22T08:22:06.193Z,77.80
2019-05-22T08:24:24.997Z,76.80
2019-05-22T08:26:55.764Z,78.10
2019-05-22T08:29:26.203Z,78.50
2019-05-22T08:31:57.862Z,76.10
2019-05-22T08:34:27.956Z,74.60
2019-05-22T08:36:59.484Z,74.90
2019-05-22T08:39:29.734Z,75.20
2019-05-22T08:41:59.974Z,76.10
2019-05-22T08:44:32.420Z,76.60
2019-05-22T08:47:02.935Z,75.30
2019-05-22T08:49:33.725Z,74.50
2019-05-22T08:52:04.864Z,73.90
2019-05-22T08:54:35.631Z,73.50
2019-05-22T08:57:09.007Z,72.70
2019-05-22T08:59:39.319Z,72.80
2019-05-22T09:02:11.068Z,73.90
2019-05-22T09:04:41.528Z,72.40
2019-05-22T09:07:13.037Z,72.70
2019-05-22T09:09:43.119Z,73.20
2019-05-22T09:12:14.978Z,72.30
2019-05-22T09:14:45.643Z,72.50
2019-05-22T09:17:16.188Z,71.90
2019-05-22T09:19:46.470Z,71.80
2019-05-22T09:22:16.569Z,70.70
2019-05-22T09:24:48.027Z,70.70
2019-05-22T09:27:18.739Z,69.20
2019-05-22T09:29:49.031Z,70.80
2019-05-22T09:32:23.438Z,69.90
2019-05-22T09:34:54.593Z,70.70
2019-05-22T09:37:26.031Z,69.20
2019-05-22T09:39:56.310Z,68.40
2019-05-22T09:42:28.408Z,68.10
2019-05-22T09:44:58.343Z,69.10
2019-05-22T09:47:28.415Z,69.20
2019-05-22T09:49:58.916Z,68.90
2019-05-22T09:52:30.290Z,68.90
2019-05-22T09:55:01.873Z,69.00
2019-05-22T09:57:32.381Z,68.00
2019-05-22T10:00:02.775Z,67.60
2019-05-22T10:02:33.193Z,68.00
2019-05-22T10:05:03.821Z,69.10
2019-05-22T10:07:34.940Z,68.10
2019-05-22T10:10:07.155Z,68.20
2019-05-22T10:12:38.555Z,68.30
2019-05-22T10:15:11.226Z,68.50
2019-05-22T10:17:49.734Z,67.80
2019-05-22T10:20:39.696Z,66.60
2019-05-22T10:23:15.979Z,65.90
2019-05-22T10:25:46.240Z,65.50
2019-05-22T10:28:16.783Z,64.90
2019-05-22T10:30:47.528Z,65.50
2019-05-22T10:33:24.681Z,66.00
2019-05-22T10:35:55.213Z,66.10
2019-05-22T10:38:25.617Z,65.90
2019-05-22T10:40:58.853Z,65.80
2019-05-22T10:43:29.745Z,65.30
2019-05-22T10:45:59.858Z,65.60
2019-05-22T10:48:30.208Z,65.90
2019-05-22T10:51:00.336Z,66.70
2019-05-22T10:53:34.002Z,67.20
2019-05-22T10:56:03.085Z,67.80
2019-05-22T10:58:33.433Z,67.30
2019-05-22T11:01:03.993Z,68.60
2019-05-22T11:03:37.569Z,67.80
2019-05-22T11:06:08.521Z,63.90
2019-05-22T11:08:40.148Z,62.40
2019-05-22T11:11:10.104Z,60.40
2019-05-22T11:13:40.890Z,63.90
2019-05-22T11:16:13.345Z,61.90
2019-05-22T11:18:44.219Z,60.60
2019-05-22T11:21:15.566Z,58.90
2019-05-22T11:23:52.121Z,61.00
2019-05-22T11:26:18.299Z,61.50
2019-05-22T11:28:48.834Z,61.80
2019-05-22T11:31:19.291Z,62.10
2019-05-22T11:33:49.585Z,61.60
2019-05-22T11:36:20.182Z,60.40
2019-05-22T11:38:50.546Z,59.90
2019-05-22T11:41:20.997Z,58.20
2019-05-22T11:43:51.902Z,57.00
2019-05-22T11:46:22.179Z,57.20
2019-05-22T11:48:52.575Z,56.80
2019-05-22T11:51:23.197Z,57.00
2019-05-22T11:54:08.077Z,59.40
2019-05-22T11:56:25.436Z,56.30
2019-05-22T11:58:55.609Z,57.20
2019-05-22T12:01:25.668Z,57.90
2019-05-22T12:03:55.974Z,57.60
2019-05-22T12:06:26.978Z,57.90
2019-05-22T12:08:57.736Z,58.80
2019-05-22T12:11:28.512Z,57.60
2019-05-22T12:13:59.155Z,54.90
2019-05-22T12:16:30.275Z,54.40
2019-05-22T12:19:01.119Z,53.50
2019-05-22T12:21:32.154Z,53.20
2019-05-22T12:24:02.698Z,52.90
2019-05-22T12:26:32.823Z,55.20
2019-05-22T12:29:03.456Z,55.30
2019-05-22T12:31:34.027Z,53.70
2019-05-22T12:34:05.099Z,50.40
2019-05-22T12:36:35.741Z,51.00
2019-05-22T12:39:08.482Z,49.90
2019-05-22T12:41:38.752Z,49.70
2019-05-22T12:44:09.840Z,49.30
2019-05-22T12:46:40.861Z,48.30
2019-05-22T12:49:11.984Z,46.00
2019-05-22T12:51:42.336Z,46.50
2019-05-22T12:54:12.707Z,48.80
2019-05-22T12:56:44.226Z,49.60
2019-05-22T12:59:14.956Z,50.00
2019-05-22T13:01:47.593Z,48.80
2019-05-22T13:04:18.164Z,48.70
2019-05-22T13:06:48.589Z,48.90
2019-05-22T13:09:19.302Z,49.50
2019-05-22T13:11:49.753Z,52.00
2019-05-22T13:14:19.792Z,51.50
2019-05-22T13:16:50.523Z,51.60
2019-05-22T13:19:26.807Z,52.80
2019-05-22T13:22:17.340Z,53.90
2019-05-22T13:24:52.056Z,54.10
2019-05-22T13:27:23.834Z,56.20
2019-05-22T13:29:56.196Z,56.30
2019-05-22T13:32:28.829Z,55.40
2019-05-22T13:34:58.393Z,57.50
2019-05-22T13:37:28.413Z,54.30
2019-05-22T13:39:58.814Z,55.20
2019-05-22T13:42:29.386Z,55.20
2019-05-22T13:45:00.368Z,55.90
2019-05-22T13:47:30.723Z,56.20
2019-05-22T13:50:02.206Z,54.90
2019-05-22T13:52:34.787Z,54.40
2019-05-22T13:55:08.221Z,52.90
2019-05-22T13:57:39.188Z,51.20
2019-05-22T14:00:15.676Z,51.10
2019-05-22T14:02:51.144Z,50.20
2019-05-22T14:05:22.078Z,50.00
2019-05-22T14:07:56.713Z,49.40
2019-05-22T14:10:27.994Z,48.60
2019-05-22T14:12:58.392Z,49.50
2019-05-22T14:15:48.310Z,48.50
2019-05-22T14:18:00.266Z,47.80
2019-05-22T14:20:30.594Z,48.80
2019-05-22T14:23:00.805Z,48.60
2019-05-22T14:25:32.602Z,46.90
2019-05-22T14:28:03.193Z,46.10
2019-05-22T14:30:34.050Z,44.60
2019-05-22T14:33:06.784Z,48.40
2019-05-22T14:35:48.136Z,48.20
2019-05-22T14:38:11.282Z,47.60
2019-05-22T14:40:41.750Z,41.20
2019-05-22T14:43:12.766Z,43.00
2019-05-22T14:45:43.812Z,45.10
2019-05-22T14:48:14.759Z,46.80
2019-05-22T14:50:45.213Z,44.10
2019-05-22T14:53:16.759Z,43.00
2019-05-22T14:55:47.438Z,41.70
2019-05-22T14:58:17.850Z,44.70
2019-05-22T15:00:48.713Z,45.60
2019-05-22T15:03:19.791Z,42.00
2019-05-22T15:05:50.620Z,41.30
2019-05-22T15:08:20.890Z,39.70
2019-05-22T15:10:52.204Z,43.30
2019-05-22T15:13:31.083Z,44.80
2019-05-22T15:16:01.287Z,44.80
2019-05-22T15:18:31.715Z,42.50
2019-05-22T15:21:02.690Z,42.50
2019-05-22T15:23:35.103Z,43.00
2019-05-22T15:26:05.373Z,41.30
2019-05-22T15:28:35.716Z,43.20
2019-05-22T15:31:06.346Z,42.60
2019-05-22T15:33:37.571Z,43.40
2019-05-22T15:36:10.869Z,44.40
2019-05-22T15:38:44.071Z,44.30
2019-05-22T15:41:14.789Z,43.20
2019-05-22T15:43:51.002Z,44.40
2019-05-22T15:46:18.845Z,44.80
2019-05-22T15:48:51.848Z,44.40
2019-05-22T15:51:26.358Z,42.90
2019-05-22T15:53:59.851Z,43.10
2019-05-22T15:56:34.190Z,45.20
2019-05-22T15:59:08.767Z,44.50
2019-05-22T16:01:40.107Z,45.90
2019-05-22T16:04:12.455Z,45.10
2019-05-22T16:06:42.803Z,42.60
2019-05-22T16:09:15.536Z,43.70
2019-05-22T16:11:48.735Z,43.80
2019-05-22T16:14:19.446Z,45.70
2019-05-22T16:16:51.461Z,48.00
2019-05-22T16:19:26.721Z,46.40
2019-05-22T16:22:16.528Z,47.30
2019-05-22T16:24:50.999Z,47.20
2019-05-22T16:27:21.543Z,46.70
2019-05-22T16:29:53.223Z,46.70
2019-05-22T16:32:24.856Z,46.00
2019-05-22T16:34:55.818Z,45.00
2019-05-22T16:37:26.828Z,46.70
2019-05-22T16:39:57.362Z,46.40
2019-05-22T16:42:28.563Z,47.70
2019-05-22T16:44:59.184Z,47.40
2019-05-22T16:47:32.925Z,47.70
2019-05-22T16:50:02.194Z,47.00
2019-05-22T16:52:33.057Z,47.80
2019-05-22T16:55:03.578Z,47.70
2019-05-22T16:57:34.261Z,48.90
2019-05-22T17:00:06.475Z,49.50
2019-05-22T17:02:38.046Z,49.00
2019-05-22T17:05:11.274Z,50.00
2019-05-22T17:07:42.903Z,50.70
2019-05-22T17:10:14.994Z,51.50
2019-05-22T17:12:46.317Z,51.50
2019-05-22T17:15:18.525Z,51.30
2019-05-22T17:17:49.191Z,50.70
2019-05-22T17:20:21.741Z,50.60
2019-05-22T17:22:52.263Z,51.00
2019-05-22T17:25:22.851Z,51.40
2019-05-22T17:27:52.834Z,50.40
2019-05-22T17:30:26.706Z,51.80
2019-05-22T17:32:59.469Z,52.00
2019-05-22T17:35:31.037Z,52.00
2019-05-22T17:38:01.383Z,52.10
2019-05-22T17:40:34.671Z,51.60
2019-05-22T17:43:34.965Z,52.60
2019-05-22T17:46:17.638Z,53.00
2019-05-22T17:48:49.759Z,53.30
2019-05-22T17:51:20.567Z,53.20
2019-05-22T17:53:51.148Z,53.40
2019-05-22T17:56:30.298Z,53.80
2019-05-22T17:59:01.361Z,54.20
2019-05-22T18:01:32.269Z,54.20
2019-05-22T18:04:02.559Z,54.20
2019-05-22T18:06:33.072Z,54.90
2019-05-22T18:09:05.050Z,53.90
2019-05-22T18:11:35.430Z,54.70
2019-05-22T18:14:25.140Z,55.20
2019-05-22T18:16:57.355Z,55.30
2019-05-22T18:19:28.376Z,55.90
2019-05-22T18:22:03.331Z,56.00
2019-05-22T18:24:45.549Z,56.20
2019-05-22T18:27:19.406Z,55.90
2019-05-22T18:29:49.717Z,56.10
2019-05-22T18:32:21.492Z,56.80
2019-05-22T18:34:52.302Z,56.50
2019-05-22T18:37:23.133Z,57.20
2019-05-22T18:39:53.796Z,57.10
2019-05-22T18:42:28.863Z,57.70
2019-05-22T18:44:59.233Z,58.00
2019-05-22T18:47:29.853Z,58.60
2019-05-22T18:50:00.370Z,58.90
2019-05-22T18:52:40.421Z,58.90
2019-05-22T18:55:03.895Z,59.30
2019-05-22T18:57:35.475Z,59.90
2019-05-22T19:00:09.585Z,60.20
2019-05-22T19:02:41.693Z,60.90
2019-05-22T19:05:12.436Z,60.70
2019-05-22T19:07:43.189Z,61.00
2019-05-22T19:10:14.890Z,60.50
2019-05-22T19:12:45.527Z,60.80
2019-05-22T19:15:17.164Z,61.40
2019-05-22T19:17:47.583Z,62.50
2019-05-22T19:20:18.213Z,64.80
2019-05-22T19:22:59.471Z,66.50
2019-05-22T19:25:20.618Z,67.60
2019-05-22T19:27:50.982Z,68.40
2019-05-22T19:30:59.981Z,69.40
2019-05-22T19:33:37.461Z,70.40
2019-05-22T19:36:09.254Z,71.30
2019-05-22T19:38:39.595Z,71.50
2019-05-22T19:41:32.836Z,72.00
2019-05-22T19:44:00.235Z,72.40
2019-05-22T19:46:31.992Z,73.10
2019-05-22T19:49:02.360Z,73.20
2019-05-22T19:51:32.910Z,73.90
2019-05-22T19:54:03.064Z,74.60
2019-05-22T19:56:33.560Z,74.80
2019-05-22T19:59:04.862Z,75.10
2019-05-22T20:01:35.275Z,75.10
2019-05-22T20:04:06.191Z,75.20
2019-05-22T20:06:38.445Z,75.50
2019-05-22T20:09:12.005Z,75.90
2019-05-22T20:11:42.713Z,76.20
2019-05-22T20:14:13.901Z,76.40
2019-05-22T20:16:44.348Z,76.70
2019-05-22T20:19:14.729Z,76.90
2019-05-22T20:21:45.250Z,77.40
2019-05-22T20:24:16.124Z,77.90
2019-05-22T20:26:47.559Z,78.70
2019-05-22T20:29:18.458Z,78.90
2019-05-22T20:31:48.473Z,79.30
2019-05-22T20:34:18.629Z,79.10
2019-05-22T20:36:48.763Z,78.80
2019-05-22T20:39:20.828Z,79.00
2019-05-22T20:41:52.261Z,79.00
2019-05-22T20:44:23.096Z,79.50
2019-05-22T20:46:54.368Z,80.10
2019-05-22T20:49:24.586Z,80.30
2019-05-22T20:51:54.858Z,80.40
2019-05-22T20:54:26.980Z,80.60
2019-05-22T20:56:59.024Z,80.80
2019-05-22T20:59:31.721Z,80.80
2019-05-22T21:02:01.320Z,80.80
2019-05-22T21:04:33.588Z,80.70
2019-05-22T21:07:07.402Z,80.90
2019-05-22T21:09:37.980Z,81.10
2019-05-22T21:12:09.106Z,82.30
2019-05-22T21:14:39.197Z,82.30
2019-05-22T21:17:09.859Z,82.50
2019-05-22T21:19:41.859Z,83.00
2019-05-22T21:22:14.360Z,83.80
2019-05-22T21:24:45.877Z,83.80
2019-05-22T21:27:16.760Z,83.70
2019-05-22T21:29:46.881Z,83.80
2019-05-22T21:32:17.128Z,83.80
2019-05-22T21:34:47.565Z,83.70
2019-05-22T21:37:19.014Z,84.10
2019-05-22T21:39:50.118Z,84.10
2019-05-22T21:42:20.907Z,84.50
2019-05-22T21:44:51.216Z,84.80
2019-05-22T21:47:21.956Z,85.00
2019-05-22T21:49:52.697Z,85.40
2019-05-22T21:52:22.842Z,84.70
2019-05-22T21:54:53.145Z,84.70
2019-05-22T21:57:23.545Z,85.10
2019-05-22T21:59:53.815Z,85.20
2019-05-22T22:02:28.678Z,84.80
2019-05-22T22:04:58.903Z,85.30
2019-05-22T22:07:29.934Z,85.80
2019-05-22T22:10:00.405Z,85.90
2019-05-22T22:12:31.177Z,85.60
2019-05-22T22:15:01.038Z,85.30
2019-05-22T22:17:32.411Z,85.10
2019-05-22T22:20:03.480Z,85.10
2019-05-22T22:22:34.506Z,85.10
2019-05-22T22:25:08.375Z,85.00
2019-05-22T22:27:39.124Z,85.70
2019-05-22T22:30:15.892Z,84.70
2019-05-22T22:32:46.207Z,84.70
2019-05-22T22:38:40.062Z,85.20
2019-05-22T22:41:12.407Z,84.90
2019-05-22T22:43:45.222Z,84.80
2019-05-22T22:46:20.182Z,84.80
2019-05-22T22:48:51.784Z,84.80
2019-05-22T22:51:22.864Z,85.40
2019-05-22T22:53:53.659Z,85.80
2019-05-22T22:56:25.578Z,85.80
2019-05-22T22:58:56.335Z,85.70
2019-05-22T23:01:30.596Z,85.90
2019-05-22T23:04:03.763Z,86.40
2019-05-22T23:06:36.329Z,86.70
2019-05-22T23:09:08.202Z,86.80
2019-05-22T23:11:42.018Z,86.50
2019-05-22T23:14:12.929Z,86.10
2019-05-22T23:16:43.184Z,86.70
2019-05-22T23:19:17.024Z,86.00
2019-05-22T23:21:47.525Z,86.00
2019-05-22T23:24:20.086Z,85.90
2019-05-22T23:26:51.977Z,85.80
2019-05-22T23:29:22.949Z,86.20
2019-05-22T23:31:55.772Z,86.80
2019-05-22T23:34:26.848Z,87.30
2019-05-22T23:36:57.357Z,87.00
2019-05-22T23:39:30.593Z,87.20
2019-05-22T23:42:04.673Z,87.20
2019-05-22T23:44:36.931Z,88.00
2019-05-22T23:47:08.191Z,88.30
2019-05-22T23:49:39.795Z,87.90
2019-05-22T23:52:10.602Z,87.10
2019-05-22T23:54:41.650Z,87.50
2019-05-22T23:57:13.417Z,88.20
2019-05-22T23:59:46.042Z,87.60
